sensor_id;sensor_type;location;lat;lon;timestamp;P1;durP1;ratioP1;P2;durP2;ratioP2
11197;SDS011;5655;48.744;9.162;2022-07-06T00:00:43;2.50;;;1.67;;
11197;SDS011;5655;48.744;9.162;2022-07-06T00:03:08;2.88;;;1.95;;
11197;SDS011;5655;48.744;9.162;2022-07-06T00:05:34;2.65;;;1.90;;
11197;SDS011;5655;48.744;9.162;2022-07-06T00:07:59;2.78;;;1.70;;
11197;SDS011;5655;48.744;9.162;2022-07-06T00:10:24;2.78;;;1.70;;
11197;SDS011;5655;48.744;9.162;2022-07-06T00:12:50;3.83;;;1.88;;
11197;SDS011;5655;48.744;9.162;2022-07-06T00:15:15;4.28;;;1.98;;
11197;SDS011;5655;48.744;9.162;2022-07-06T00:17:40;2.85;;;1.83;;
11197;SDS011;5655;48.744;9.162;2022-07-06T00:20:06;3.83;;;1.55;;
11197;SDS011;5655;48.744;9.162;2022-07-06T00:22:31;1.73;;;1.63;;
11197;SDS011;5655;48.744;9.162;2022-07-06T00:24:57;3.50;;;1.95;;
11197;SDS011;5655;48.744;9.162;2022-07-06T00:27:22;6.45;;;2.10;;
11197;SDS011;5655;48.744;9.162;2022-07-06T00:29:47;3.53;;;1.88;;
11197;SDS011;5655;48.744;9.162;2022-07-06T00:32:13;2.53;;;1.65;;
11197;SDS011;5655;48.744;9.162;2022-07-06T00:34:39;3.88;;;1.88;;
11197;SDS011;5655;48.744;9.162;2022-07-06T00:37:05;4.47;;;1.90;;
11197;SDS011;5655;48.744;9.162;2022-07-06T00:39:31;2.00;;;1.90;;
11197;SDS011;5655;48.744;9.162;2022-07-06T00:41:57;3.42;;;1.92;;
11197;SDS011;5655;48.744;9.162;2022-07-06T00:44:22;2.90;;;2.00;;
11197;SDS011;5655;48.744;9.162;2022-07-06T00:46:47;3.10;;;2.03;;
11197;SDS011;5655;48.744;9.162;2022-07-06T00:49:13;2.33;;;1.60;;
11197;SDS011;5655;48.744;9.162;2022-07-06T00:51:57;2.38;;;1.80;;
11197;SDS011;5655;48.744;9.162;2022-07-06T00:54:23;2.25;;;1.70;;
11197;SDS011;5655;48.744;9.162;2022-07-06T00:56:49;1.63;;;1.52;;
11197;SDS011;5655;48.744;9.162;2022-07-06T00:59:14;2.50;;;1.70;;
11197;SDS011;5655;48.744;9.162;2022-07-06T01:01:39;2.53;;;1.90;;
11197;SDS011;5655;48.744;9.162;2022-07-06T01:04:05;2.30;;;1.77;;
11197;SDS011;5655;48.744;9.162;2022-07-06T01:06:30;3.22;;;2.33;;
11197;SDS011;5655;48.744;9.162;2022-07-06T01:08:55;3.50;;;2.25;;
11197;SDS011;5655;48.744;9.162;2022-07-06T01:11:21;2.08;;;1.67;;
11197;SDS011;5655;48.744;9.162;2022-07-06T01:13:47;3.63;;;1.92;;
11197;SDS011;5655;48.744;9.162;2022-07-06T01:16:13;2.25;;;1.70;;
11197;SDS011;5655;48.744;9.162;2022-07-06T01:18:38;2.80;;;1.80;;
11197;SDS011;5655;48.744;9.162;2022-07-06T01:21:06;3.30;;;1.70;;
11197;SDS011;5655;48.744;9.162;2022-07-06T01:23:33;2.63;;;1.80;;
11197;SDS011;5655;48.744;9.162;2022-07-06T01:26:04;3.47;;;2.00;;
11197;SDS011;5655;48.744;9.162;2022-07-06T01:28:29;3.90;;;1.70;;
11197;SDS011;5655;48.744;9.162;2022-07-06T01:30:55;2.38;;;1.70;;
11197;SDS011;5655;48.744;9.162;2022-07-06T01:33:20;3.75;;;1.85;;
11197;SDS011;5655;48.744;9.162;2022-07-06T01:35:45;2.58;;;1.80;;
11197;SDS011;5655;48.744;9.162;2022-07-06T01:38:11;1.90;;;1.75;;
11197;SDS011;5655;48.744;9.162;2022-07-06T01:40:37;3.15;;;1.77;;
11197;SDS011;5655;48.744;9.162;2022-07-06T01:43:02;2.72;;;1.80;;
11197;SDS011;5655;48.744;9.162;2022-07-06T01:45:30;2.03;;;1.80;;
11197;SDS011;5655;48.744;9.162;2022-07-06T01:47:57;2.58;;;1.63;;
11197;SDS011;5655;48.744;9.162;2022-07-06T01:50:22;5.53;;;1.95;;
11197;SDS011;5655;48.744;9.162;2022-07-06T01:52:48;2.97;;;1.73;;
11197;SDS011;5655;48.744;9.162;2022-07-06T01:55:13;3.08;;;2.17;;
11197;SDS011;5655;48.744;9.162;2022-07-06T01:57:38;4.05;;;1.33;;
11197;SDS011;5655;48.744;9.162;2022-07-06T02:00:05;4.80;;;1.98;;
11197;SDS011;5655;48.744;9.162;2022-07-06T02:02:32;2.08;;;1.88;;
11197;SDS011;5655;48.744;9.162;2022-07-06T02:04:58;2.35;;;1.67;;
11197;SDS011;5655;48.744;9.162;2022-07-06T02:07:23;2.65;;;2.10;;
11197;SDS011;5655;48.744;9.162;2022-07-06T02:09:48;1.95;;;1.70;;
11197;SDS011;5655;48.744;9.162;2022-07-06T02:12:14;3.00;;;1.73;;
11197;SDS011;5655;48.744;9.162;2022-07-06T02:14:39;4.47;;;1.92;;
11197;SDS011;5655;48.744;9.162;2022-07-06T02:17:05;1.67;;;1.58;;
11197;SDS011;5655;48.744;9.162;2022-07-06T02:19:30;3.22;;;1.85;;
11197;SDS011;5655;48.744;9.162;2022-07-06T02:21:55;3.50;;;1.95;;
11197;SDS011;5655;48.744;9.162;2022-07-06T02:24:21;5.60;;;1.90;;
11197;SDS011;5655;48.744;9.162;2022-07-06T02:26:46;3.42;;;1.90;;
11197;SDS011;5655;48.744;9.162;2022-07-06T02:29:12;3.33;;;2.15;;
11197;SDS011;5655;48.744;9.162;2022-07-06T02:31:37;2.83;;;1.80;;
11197;SDS011;5655;48.744;9.162;2022-07-06T02:34:03;2.17;;;1.85;;
11197;SDS011;5655;48.744;9.162;2022-07-06T02:36:28;2.72;;;1.85;;
11197;SDS011;5655;48.744;9.162;2022-07-06T02:38:54;2.40;;;1.58;;
11197;SDS011;5655;48.744;9.162;2022-07-06T02:41:19;2.65;;;2.00;;
11197;SDS011;5655;48.744;9.162;2022-07-06T02:43:44;2.42;;;1.75;;
11197;SDS011;5655;48.744;9.162;2022-07-06T02:46:10;3.67;;;2.00;;
11197;SDS011;5655;48.744;9.162;2022-07-06T02:48:35;2.65;;;1.70;;
11197;SDS011;5655;48.744;9.162;2022-07-06T02:51:00;3.15;;;2.13;;
11197;SDS011;5655;48.744;9.162;2022-07-06T02:53:26;2.65;;;1.92;;
11197;SDS011;5655;48.744;9.162;2022-07-06T02:55:52;3.20;;;2.00;;
11197;SDS011;5655;48.744;9.162;2022-07-06T02:58:17;2.45;;;1.92;;
11197;SDS011;5655;48.744;9.162;2022-07-06T03:00:42;3.92;;;2.10;;
11197;SDS011;5655;48.744;9.162;2022-07-06T03:03:07;3.30;;;2.00;;
11197;SDS011;5655;48.744;9.162;2022-07-06T03:05:34;3.53;;;1.90;;
11197;SDS011;5655;48.744;9.162;2022-07-06T03:07:59;3.70;;;2.10;;
11197;SDS011;5655;48.744;9.162;2022-07-06T03:10:24;2.75;;;1.90;;
11197;SDS011;5655;48.744;9.162;2022-07-06T03:12:50;5.45;;;1.98;;
11197;SDS011;5655;48.744;9.162;2022-07-06T03:15:15;4.70;;;2.30;;
11197;SDS011;5655;48.744;9.162;2022-07-06T03:17:40;3.15;;;2.30;;
11197;SDS011;5655;48.744;9.162;2022-07-06T03:20:06;3.85;;;1.90;;
11197;SDS011;5655;48.744;9.162;2022-07-06T03:22:32;2.92;;;1.55;;
11197;SDS011;5655;48.744;9.162;2022-07-06T03:24:57;3.75;;;2.05;;
11197;SDS011;5655;48.744;9.162;2022-07-06T03:27:22;4.00;;;2.13;;
11197;SDS011;5655;48.744;9.162;2022-07-06T03:29:48;5.88;;;2.33;;
11197;SDS011;5655;48.744;9.162;2022-07-06T03:32:13;2.85;;;2.30;;
11197;SDS011;5655;48.744;9.162;2022-07-06T03:34:39;2.42;;;2.10;;
11197;SDS011;5655;48.744;9.162;2022-07-06T03:37:04;4.78;;;2.20;;
11197;SDS011;5655;48.744;9.162;2022-07-06T03:39:31;2.70;;;1.92;;
11197;SDS011;5655;48.744;9.162;2022-07-06T03:41:56;5.03;;;2.40;;
11197;SDS011;5655;48.744;9.162;2022-07-06T03:44:21;3.20;;;2.10;;
11197;SDS011;5655;48.744;9.162;2022-07-06T03:46:47;4.72;;;2.58;;
11197;SDS011;5655;48.744;9.162;2022-07-06T03:49:12;4.60;;;2.05;;
11197;SDS011;5655;48.744;9.162;2022-07-06T03:51:37;3.50;;;2.25;;
11197;SDS011;5655;48.744;9.162;2022-07-06T03:54:04;4.38;;;2.15;;
11197;SDS011;5655;48.744;9.162;2022-07-06T03:56:29;4.30;;;2.28;;
11197;SDS011;5655;48.744;9.162;2022-07-06T03:58:57;2.83;;;2.10;;
11197;SDS011;5655;48.744;9.162;2022-07-06T04:01:23;4.90;;;2.35;;
11197;SDS011;5655;48.744;9.162;2022-07-06T04:03:48;3.03;;;2.20;;
11197;SDS011;5655;48.744;9.162;2022-07-06T04:06:14;6.32;;;2.63;;
11197;SDS011;5655;48.744;9.162;2022-07-06T04:08:40;4.25;;;2.33;;
11197;SDS011;5655;48.744;9.162;2022-07-06T04:11:05;3.40;;;2.47;;
11197;SDS011;5655;48.744;9.162;2022-07-06T04:13:30;3.53;;;2.55;;
11197;SDS011;5655;48.744;9.162;2022-07-06T04:15:56;3.55;;;2.67;;
11197;SDS011;5655;48.744;9.162;2022-07-06T04:18:21;4.05;;;2.28;;
11197;SDS011;5655;48.744;9.162;2022-07-06T04:20:46;3.70;;;2.65;;
11197;SDS011;5655;48.744;9.162;2022-07-06T04:23:12;4.82;;;2.55;;
11197;SDS011;5655;48.744;9.162;2022-07-06T04:25:37;4.15;;;2.45;;
11197;SDS011;5655;48.744;9.162;2022-07-06T04:28:03;3.88;;;2.65;;
11197;SDS011;5655;48.744;9.162;2022-07-06T04:30:28;6.68;;;2.67;;
11197;SDS011;5655;48.744;9.162;2022-07-06T04:32:53;2.97;;;2.65;;
11197;SDS011;5655;48.744;9.162;2022-07-06T04:35:20;4.07;;;2.47;;
11197;SDS011;5655;48.744;9.162;2022-07-06T04:37:46;4.15;;;2.45;;
11197;SDS011;5655;48.744;9.162;2022-07-06T04:40:12;7.28;;;2.95;;
11197;SDS011;5655;48.744;9.162;2022-07-06T04:42:38;4.45;;;2.42;;
11197;SDS011;5655;48.744;9.162;2022-07-06T04:45:03;4.93;;;2.67;;
11197;SDS011;5655;48.744;9.162;2022-07-06T04:47:29;4.22;;;2.83;;
11197;SDS011;5655;48.744;9.162;2022-07-06T04:49:55;4.07;;;2.70;;
11197;SDS011;5655;48.744;9.162;2022-07-06T04:52:20;4.18;;;2.97;;
11197;SDS011;5655;48.744;9.162;2022-07-06T04:54:45;3.72;;;3.00;;
11197;SDS011;5655;48.744;9.162;2022-07-06T04:57:11;3.45;;;2.83;;
11197;SDS011;5655;48.744;9.162;2022-07-06T04:59:37;2.97;;;2.67;;
11197;SDS011;5655;48.744;9.162;2022-07-06T05:02:03;4.78;;;2.90;;
11197;SDS011;5655;48.744;9.162;2022-07-06T05:04:28;5.20;;;2.92;;
11197;SDS011;5655;48.744;9.162;2022-07-06T05:06:54;8.00;;;3.30;;
11197;SDS011;5655;48.744;9.162;2022-07-06T05:09:19;6.30;;;3.10;;
11197;SDS011;5655;48.744;9.162;2022-07-06T05:11:44;5.53;;;2.70;;
11197;SDS011;5655;48.744;9.162;2022-07-06T05:14:10;6.13;;;3.20;;
11197;SDS011;5655;48.744;9.162;2022-07-06T05:16:35;4.80;;;3.25;;
11197;SDS011;5655;48.744;9.162;2022-07-06T05:19:01;3.75;;;2.90;;
11197;SDS011;5655;48.744;9.162;2022-07-06T05:21:26;3.60;;;2.90;;
11197;SDS011;5655;48.744;9.162;2022-07-06T05:23:51;3.70;;;2.75;;
11197;SDS011;5655;48.744;9.162;2022-07-06T05:26:17;6.15;;;3.40;;
11197;SDS011;5655;48.744;9.162;2022-07-06T05:28:42;4.70;;;3.03;;
11197;SDS011;5655;48.744;9.162;2022-07-06T05:31:08;3.78;;;2.90;;
11197;SDS011;5655;48.744;9.162;2022-07-06T05:33:33;4.80;;;2.75;;
11197;SDS011;5655;48.744;9.162;2022-07-06T05:35:58;7.18;;;3.17;;
11197;SDS011;5655;48.744;9.162;2022-07-06T05:38:24;4.72;;;3.20;;
11197;SDS011;5655;48.744;9.162;2022-07-06T05:40:49;3.47;;;3.03;;
11197;SDS011;5655;48.744;9.162;2022-07-06T05:43:15;3.28;;;2.95;;
11197;SDS011;5655;48.744;9.162;2022-07-06T05:45:41;3.45;;;3.13;;
11197;SDS011;5655;48.744;9.162;2022-07-06T05:48:06;4.00;;;3.13;;
11197;SDS011;5655;48.744;9.162;2022-07-06T05:50:50;4.10;;;3.17;;
11197;SDS011;5655;48.744;9.162;2022-07-06T05:53:15;3.67;;;3.10;;
11197;SDS011;5655;48.744;9.162;2022-07-06T05:55:41;4.18;;;3.55;;
11197;SDS011;5655;48.744;9.162;2022-07-06T05:58:06;3.40;;;2.90;;
11197;SDS011;5655;48.744;9.162;2022-07-06T06:00:32;8.13;;;3.15;;
11197;SDS011;5655;48.744;9.162;2022-07-06T06:02:57;3.92;;;3.17;;
11197;SDS011;5655;48.744;9.162;2022-07-06T06:05:23;8.43;;;2.95;;
11197;SDS011;5655;48.744;9.162;2022-07-06T06:07:48;13.20;;;3.33;;
11197;SDS011;5655;48.744;9.162;2022-07-06T06:10:16;6.65;;;3.15;;
11197;SDS011;5655;48.744;9.162;2022-07-06T06:12:42;7.78;;;3.00;;
11197;SDS011;5655;48.744;9.162;2022-07-06T06:15:08;5.30;;;2.97;;
11197;SDS011;5655;48.744;9.162;2022-07-06T06:17:37;4.95;;;2.83;;
11197;SDS011;5655;48.744;9.162;2022-07-06T06:20:04;3.47;;;2.85;;
11197;SDS011;5655;48.744;9.162;2022-07-06T06:22:31;6.68;;;3.03;;
11197;SDS011;5655;48.744;9.162;2022-07-06T06:25:09;4.45;;;2.70;;
11197;SDS011;5655;48.744;9.162;2022-07-06T06:27:34;5.43;;;2.90;;
11197;SDS011;5655;48.744;9.162;2022-07-06T06:29:59;3.40;;;2.90;;
11197;SDS011;5655;48.744;9.162;2022-07-06T06:32:25;4.03;;;2.95;;
11197;SDS011;5655;48.744;9.162;2022-07-06T06:34:50;4.93;;;2.80;;
11197;SDS011;5655;48.744;9.162;2022-07-06T06:37:15;4.03;;;2.80;;
11197;SDS011;5655;48.744;9.162;2022-07-06T06:39:41;3.42;;;2.60;;
11197;SDS011;5655;48.744;9.162;2022-07-06T06:42:06;3.85;;;2.45;;
11197;SDS011;5655;48.744;9.162;2022-07-06T06:44:32;4.53;;;2.50;;
11197;SDS011;5655;48.744;9.162;2022-07-06T06:46:57;7.63;;;2.60;;
11197;SDS011;5655;48.744;9.162;2022-07-06T06:49:22;6.70;;;2.65;;
11197;SDS011;5655;48.744;9.162;2022-07-06T06:51:48;2.83;;;2.50;;
11197;SDS011;5655;48.744;9.162;2022-07-06T06:54:13;4.03;;;2.60;;
11197;SDS011;5655;48.744;9.162;2022-07-06T06:56:38;4.70;;;3.13;;
11197;SDS011;5655;48.744;9.162;2022-07-06T06:59:03;3.15;;;2.65;;
11197;SDS011;5655;48.744;9.162;2022-07-06T07:01:29;6.95;;;2.47;;
11197;SDS011;5655;48.744;9.162;2022-07-06T07:03:54;3.90;;;2.05;;
11197;SDS011;5655;48.744;9.162;2022-07-06T07:06:20;3.47;;;2.33;;
11197;SDS011;5655;48.744;9.162;2022-07-06T07:08:46;4.38;;;3.33;;
11197;SDS011;5655;48.744;9.162;2022-07-06T07:11:12;2.88;;;2.58;;
11197;SDS011;5655;48.744;9.162;2022-07-06T07:13:38;4.47;;;2.40;;
11197;SDS011;5655;48.744;9.162;2022-07-06T07:16:03;6.53;;;2.53;;
11197;SDS011;5655;48.744;9.162;2022-07-06T07:18:29;3.63;;;2.67;;
11197;SDS011;5655;48.744;9.162;2022-07-06T07:20:54;4.10;;;2.60;;
11197;SDS011;5655;48.744;9.162;2022-07-06T07:23:20;3.38;;;2.42;;
11197;SDS011;5655;48.744;9.162;2022-07-06T07:25:45;4.55;;;2.55;;
11197;SDS011;5655;48.744;9.162;2022-07-06T07:28:10;3.47;;;3.17;;
11197;SDS011;5655;48.744;9.162;2022-07-06T07:30:36;5.88;;;2.70;;
11197;SDS011;5655;48.744;9.162;2022-07-06T07:33:01;4.18;;;2.45;;
11197;SDS011;5655;48.744;9.162;2022-07-06T07:35:27;3.90;;;2.58;;
11197;SDS011;5655;48.744;9.162;2022-07-06T07:37:52;7.00;;;3.25;;
11197;SDS011;5655;48.744;9.162;2022-07-06T07:40:18;3.95;;;2.58;;
11197;SDS011;5655;48.744;9.162;2022-07-06T07:42:44;3.35;;;2.65;;
11197;SDS011;5655;48.744;9.162;2022-07-06T07:45:10;3.20;;;2.58;;
11197;SDS011;5655;48.744;9.162;2022-07-06T07:47:36;3.90;;;2.30;;
11197;SDS011;5655;48.744;9.162;2022-07-06T07:50:01;2.88;;;2.40;;
11197;SDS011;5655;48.744;9.162;2022-07-06T07:52:27;3.70;;;2.60;;
11197;SDS011;5655;48.744;9.162;2022-07-06T07:54:52;4.95;;;2.58;;
11197;SDS011;5655;48.744;9.162;2022-07-06T07:57:18;6.15;;;2.63;;
11197;SDS011;5655;48.744;9.162;2022-07-06T07:59:43;4.68;;;2.50;;
11197;SDS011;5655;48.744;9.162;2022-07-06T08:02:09;3.17;;;2.40;;
11197;SDS011;5655;48.744;9.162;2022-07-06T08:04:34;4.13;;;2.40;;
11197;SDS011;5655;48.744;9.162;2022-07-06T08:06:59;5.32;;;2.38;;
11197;SDS011;5655;48.744;9.162;2022-07-06T08:09:25;6.70;;;2.60;;
11197;SDS011;5655;48.744;9.162;2022-07-06T08:11:51;3.42;;;2.30;;
11197;SDS011;5655;48.744;9.162;2022-07-06T08:14:16;5.95;;;2.85;;
11197;SDS011;5655;48.744;9.162;2022-07-06T08:16:42;2.63;;;2.15;;
11197;SDS011;5655;48.744;9.162;2022-07-06T08:19:08;3.45;;;2.55;;
11197;SDS011;5655;48.744;9.162;2022-07-06T08:21:34;2.53;;;2.30;;
11197;SDS011;5655;48.744;9.162;2022-07-06T08:24:00;5.35;;;2.42;;
11197;SDS011;5655;48.744;9.162;2022-07-06T08:26:26;4.10;;;2.67;;
11197;SDS011;5655;48.744;9.162;2022-07-06T08:28:52;3.92;;;2.50;;
11197;SDS011;5655;48.744;9.162;2022-07-06T08:31:18;6.00;;;3.08;;
11197;SDS011;5655;48.744;9.162;2022-07-06T08:33:43;3.20;;;2.47;;
11197;SDS011;5655;48.744;9.162;2022-07-06T08:36:08;4.00;;;2.60;;
11197;SDS011;5655;48.744;9.162;2022-07-06T08:38:34;6.75;;;2.70;;
11197;SDS011;5655;48.744;9.162;2022-07-06T08:40:59;3.20;;;2.40;;
11197;SDS011;5655;48.744;9.162;2022-07-06T08:43:25;3.60;;;2.80;;
11197;SDS011;5655;48.744;9.162;2022-07-06T08:45:50;4.22;;;2.30;;
11197;SDS011;5655;48.744;9.162;2022-07-06T08:48:19;5.57;;;2.90;;
11197;SDS011;5655;48.744;9.162;2022-07-06T08:50:48;5.20;;;2.92;;
11197;SDS011;5655;48.744;9.162;2022-07-06T08:53:14;5.35;;;2.80;;
11197;SDS011;5655;48.744;9.162;2022-07-06T08:55:41;9.23;;;2.60;;
11197;SDS011;5655;48.744;9.162;2022-07-06T08:58:07;4.20;;;2.22;;
11197;SDS011;5655;48.744;9.162;2022-07-06T09:00:32;4.70;;;2.90;;
11197;SDS011;5655;48.744;9.162;2022-07-06T09:02:59;5.18;;;2.63;;
11197;SDS011;5655;48.744;9.162;2022-07-06T09:05:24;5.90;;;3.25;;
11197;SDS011;5655;48.744;9.162;2022-07-06T09:07:50;7.45;;;3.20;;
11197;SDS011;5655;48.744;9.162;2022-07-06T09:10:17;3.42;;;3.13;;
11197;SDS011;5655;48.744;9.162;2022-07-06T09:12:44;5.00;;;2.50;;
11197;SDS011;5655;48.744;9.162;2022-07-06T09:15:09;5.45;;;2.70;;
11197;SDS011;5655;48.744;9.162;2022-07-06T09:17:37;5.28;;;2.88;;
11197;SDS011;5655;48.744;9.162;2022-07-06T09:20:06;5.50;;;2.60;;
11197;SDS011;5655;48.744;9.162;2022-07-06T09:22:33;5.65;;;2.92;;
11197;SDS011;5655;48.744;9.162;2022-07-06T09:25:05;4.97;;;3.03;;
11197;SDS011;5655;48.744;9.162;2022-07-06T09:27:39;4.30;;;2.33;;
11197;SDS011;5655;48.744;9.162;2022-07-06T09:30:07;3.40;;;2.55;;
11197;SDS011;5655;48.744;9.162;2022-07-06T09:35:06;3.33;;;2.60;;
11197;SDS011;5655;48.744;9.162;2022-07-06T09:37:32;5.40;;;2.50;;
11197;SDS011;5655;48.744;9.162;2022-07-06T09:39:57;4.50;;;3.13;;
11197;SDS011;5655;48.744;9.162;2022-07-06T09:42:25;3.47;;;2.75;;
11197;SDS011;5655;48.744;9.162;2022-07-06T09:44:52;2.47;;;2.25;;
11197;SDS011;5655;48.744;9.162;2022-07-06T09:47:18;3.45;;;2.55;;
11197;SDS011;5655;48.744;9.162;2022-07-06T09:49:45;3.03;;;2.35;;
11197;SDS011;5655;48.744;9.162;2022-07-06T09:52:11;6.68;;;3.33;;
11197;SDS011;5655;48.744;9.162;2022-07-06T09:54:39;5.05;;;2.53;;
11197;SDS011;5655;48.744;9.162;2022-07-06T09:57:05;3.33;;;2.30;;
11197;SDS011;5655;48.744;9.162;2022-07-06T09:59:32;5.50;;;2.78;;
11197;SDS011;5655;48.744;9.162;2022-07-06T10:01:59;5.25;;;2.83;;
11197;SDS011;5655;48.744;9.162;2022-07-06T10:04:27;6.32;;;2.90;;
11197;SDS011;5655;48.744;9.162;2022-07-06T10:06:53;3.92;;;2.53;;
11197;SDS011;5655;48.744;9.162;2022-07-06T10:09:20;5.47;;;2.80;;
11197;SDS011;5655;48.744;9.162;2022-07-06T10:14:18;4.38;;;2.90;;
11197;SDS011;5655;48.744;9.162;2022-07-06T10:16:46;3.85;;;2.95;;
11197;SDS011;5655;48.744;9.162;2022-07-06T10:19:12;3.75;;;2.60;;
11197;SDS011;5655;48.744;9.162;2022-07-06T10:21:40;3.63;;;2.40;;
11197;SDS011;5655;48.744;9.162;2022-07-06T10:24:06;6.65;;;2.60;;
11197;SDS011;5655;48.744;9.162;2022-07-06T10:26:33;5.50;;;2.75;;
11197;SDS011;5655;48.744;9.162;2022-07-06T10:29:01;8.38;;;2.58;;
11197;SDS011;5655;48.744;9.162;2022-07-06T10:31:28;5.63;;;2.85;;
11197;SDS011;5655;48.744;9.162;2022-07-06T10:33:55;3.03;;;2.20;;
11197;SDS011;5655;48.744;9.162;2022-07-06T10:36:21;3.63;;;2.30;;
11197;SDS011;5655;48.744;9.162;2022-07-06T10:38:49;5.35;;;2.38;;
11197;SDS011;5655;48.744;9.162;2022-07-06T10:41:16;3.08;;;1.90;;
11197;SDS011;5655;48.744;9.162;2022-07-06T10:43:43;6.57;;;2.38;;
11197;SDS011;5655;48.744;9.162;2022-07-06T10:46:10;6.45;;;2.58;;
11197;SDS011;5655;48.744;9.162;2022-07-06T10:48:40;3.38;;;2.50;;
11197;SDS011;5655;48.744;9.162;2022-07-06T10:51:07;4.07;;;2.75;;
11197;SDS011;5655;48.744;9.162;2022-07-06T10:53:36;3.38;;;2.47;;
11197;SDS011;5655;48.744;9.162;2022-07-06T10:56:07;5.72;;;2.60;;
11197;SDS011;5655;48.744;9.162;2022-07-06T10:58:47;4.80;;;2.88;;
11197;SDS011;5655;48.744;9.162;2022-07-06T11:01:13;5.35;;;2.75;;
11197;SDS011;5655;48.744;9.162;2022-07-06T11:08:41;7.00;;;3.08;;
11197;SDS011;5655;48.744;9.162;2022-07-06T11:11:10;3.38;;;2.80;;
11197;SDS011;5655;48.744;9.162;2022-07-06T11:13:42;3.80;;;3.13;;
11197;SDS011;5655;48.744;9.162;2022-07-06T11:16:14;7.00;;;2.90;;
11197;SDS011;5655;48.744;9.162;2022-07-06T11:18:41;5.95;;;2.97;;
11197;SDS011;5655;48.744;9.162;2022-07-06T11:21:22;4.47;;;3.10;;
11197;SDS011;5655;48.744;9.162;2022-07-06T11:23:49;4.93;;;2.65;;
11197;SDS011;5655;48.744;9.162;2022-07-06T11:26:16;5.35;;;3.08;;
11197;SDS011;5655;48.744;9.162;2022-07-06T11:28:44;6.07;;;2.90;;
11197;SDS011;5655;48.744;9.162;2022-07-06T11:31:10;5.05;;;2.92;;
11197;SDS011;5655;48.744;9.162;2022-07-06T11:33:36;6.03;;;2.70;;
11197;SDS011;5655;48.744;9.162;2022-07-06T11:36:14;3.60;;;2.55;;
11197;SDS011;5655;48.744;9.162;2022-07-06T11:38:44;5.47;;;2.67;;
11197;SDS011;5655;48.744;9.162;2022-07-06T11:41:11;3.53;;;2.88;;
11197;SDS011;5655;48.744;9.162;2022-07-06T11:43:39;4.13;;;2.78;;
11197;SDS011;5655;48.744;9.162;2022-07-06T11:49:01;7.47;;;3.25;;
11197;SDS011;5655;48.744;9.162;2022-07-06T11:51:32;6.95;;;2.63;;
11197;SDS011;5655;48.744;9.162;2022-07-06T11:54:00;7.25;;;3.05;;
11197;SDS011;5655;48.744;9.162;2022-07-06T11:56:31;6.30;;;3.10;;
11197;SDS011;5655;48.744;9.162;2022-07-06T11:58:58;5.85;;;2.55;;
11197;SDS011;5655;48.744;9.162;2022-07-06T12:01:25;5.68;;;2.70;;
11197;SDS011;5655;48.744;9.162;2022-07-06T12:03:59;5.20;;;2.80;;
11197;SDS011;5655;48.744;9.162;2022-07-06T12:06:27;5.57;;;3.40;;
11197;SDS011;5655;48.744;9.162;2022-07-06T12:08:53;5.50;;;2.92;;
11197;SDS011;5655;48.744;9.162;2022-07-06T12:13:57;8.45;;;3.72;;
11197;SDS011;5655;48.744;9.162;2022-07-06T12:16:30;5.57;;;3.00;;
11197;SDS011;5655;48.744;9.162;2022-07-06T12:18:58;7.65;;;3.13;;
11197;SDS011;5655;48.744;9.162;2022-07-06T12:21:24;4.43;;;2.90;;
11197;SDS011;5655;48.744;9.162;2022-07-06T12:23:50;3.75;;;2.90;;
11197;SDS011;5655;48.744;9.162;2022-07-06T12:26:18;5.30;;;3.20;;
11197;SDS011;5655;48.744;9.162;2022-07-06T12:28:45;5.40;;;3.20;;
11197;SDS011;5655;48.744;9.162;2022-07-06T12:34:20;4.70;;;2.90;;
11197;SDS011;5655;48.744;9.162;2022-07-06T12:36:58;11.13;;;3.60;;
11197;SDS011;5655;48.744;9.162;2022-07-06T12:39:28;4.18;;;2.63;;
11197;SDS011;5655;48.744;9.162;2022-07-06T12:42:03;5.20;;;2.67;;
11197;SDS011;5655;48.744;9.162;2022-07-06T12:44:30;4.93;;;2.30;;
11197;SDS011;5655;48.744;9.162;2022-07-06T12:49:28;10.18;;;3.70;;
11197;SDS011;5655;48.744;9.162;2022-07-06T12:54:26;7.15;;;2.70;;
11197;SDS011;5655;48.744;9.162;2022-07-06T12:59:27;3.97;;;2.42;;
11197;SDS011;5655;48.744;9.162;2022-07-06T13:01:54;7.00;;;3.15;;
11197;SDS011;5655;48.744;9.162;2022-07-06T13:04:21;3.00;;;2.60;;
11197;SDS011;5655;48.744;9.162;2022-07-06T13:06:48;4.38;;;2.40;;
11197;SDS011;5655;48.744;9.162;2022-07-06T13:09:14;6.00;;;2.80;;
11197;SDS011;5655;48.744;9.162;2022-07-06T13:11:41;4.88;;;2.33;;
11197;SDS011;5655;48.744;9.162;2022-07-06T13:14:06;5.40;;;2.47;;
11197;SDS011;5655;48.744;9.162;2022-07-06T13:16:33;4.07;;;2.28;;
11197;SDS011;5655;48.744;9.162;2022-07-06T13:19:00;8.98;;;2.70;;
11197;SDS011;5655;48.744;9.162;2022-07-06T13:21:26;4.07;;;2.70;;
11197;SDS011;5655;48.744;9.162;2022-07-06T13:23:51;7.32;;;2.60;;
11197;SDS011;5655;48.744;9.162;2022-07-06T13:26:16;4.07;;;2.33;;
11197;SDS011;5655;48.744;9.162;2022-07-06T13:28:42;4.35;;;2.28;;
11197;SDS011;5655;48.744;9.162;2022-07-06T13:31:07;6.03;;;2.40;;
11197;SDS011;5655;48.744;9.162;2022-07-06T13:33:33;5.63;;;2.60;;
11197;SDS011;5655;48.744;9.162;2022-07-06T13:35:58;2.25;;;1.98;;
11197;SDS011;5655;48.744;9.162;2022-07-06T13:38:23;4.55;;;2.00;;
11197;SDS011;5655;48.744;9.162;2022-07-06T13:40:49;4.22;;;2.33;;
11197;SDS011;5655;48.744;9.162;2022-07-06T13:43:14;5.30;;;2.20;;
11197;SDS011;5655;48.744;9.162;2022-07-06T13:45:39;4.40;;;2.53;;
11197;SDS011;5655;48.744;9.162;2022-07-06T13:48:05;3.35;;;1.90;;
11197;SDS011;5655;48.744;9.162;2022-07-06T13:50:30;4.18;;;2.08;;
11197;SDS011;5655;48.744;9.162;2022-07-06T13:52:57;3.35;;;2.50;;
11197;SDS011;5655;48.744;9.162;2022-07-06T13:55:23;3.75;;;2.83;;
11197;SDS011;5655;48.744;9.162;2022-07-06T13:57:49;4.60;;;2.25;;
11197;SDS011;5655;48.744;9.162;2022-07-06T14:00:14;3.65;;;2.25;;
11197;SDS011;5655;48.744;9.162;2022-07-06T14:02:43;2.40;;;1.92;;
11197;SDS011;5655;48.744;9.162;2022-07-06T14:05:10;5.53;;;2.67;;
11197;SDS011;5655;48.744;9.162;2022-07-06T14:07:35;2.97;;;2.10;;
11197;SDS011;5655;48.744;9.162;2022-07-06T14:10:01;4.47;;;2.55;;
11197;SDS011;5655;48.744;9.162;2022-07-06T14:12:27;5.75;;;2.22;;
11197;SDS011;5655;48.744;9.162;2022-07-06T14:14:52;6.35;;;2.28;;
11197;SDS011;5655;48.744;9.162;2022-07-06T14:17:18;4.53;;;2.28;;
11197;SDS011;5655;48.744;9.162;2022-07-06T14:19:43;3.70;;;1.95;;
11197;SDS011;5655;48.744;9.162;2022-07-06T14:22:09;6.80;;;2.17;;
11197;SDS011;5655;48.744;9.162;2022-07-06T14:24:34;5.03;;;2.50;;
11197;SDS011;5655;48.744;9.162;2022-07-06T14:27:00;3.60;;;1.83;;
11197;SDS011;5655;48.744;9.162;2022-07-06T14:29:26;3.13;;;1.88;;
11197;SDS011;5655;48.744;9.162;2022-07-06T14:31:51;3.40;;;2.03;;
11197;SDS011;5655;48.744;9.162;2022-07-06T14:34:17;2.65;;;1.75;;
11197;SDS011;5655;48.744;9.162;2022-07-06T14:36:42;4.82;;;1.95;;
11197;SDS011;5655;48.744;9.162;2022-07-06T14:39:07;2.22;;;1.90;;
11197;SDS011;5655;48.744;9.162;2022-07-06T14:41:33;2.58;;;1.98;;
11197;SDS011;5655;48.744;9.162;2022-07-06T14:44:00;3.47;;;2.10;;
11197;SDS011;5655;48.744;9.162;2022-07-06T14:46:25;3.65;;;2.00;;
11197;SDS011;5655;48.744;9.162;2022-07-06T14:48:51;8.27;;;1.85;;
11197;SDS011;5655;48.744;9.162;2022-07-06T14:51:16;3.90;;;1.50;;
11197;SDS011;5655;48.744;9.162;2022-07-06T14:53:42;3.25;;;1.50;;
11197;SDS011;5655;48.744;9.162;2022-07-06T14:56:07;3.72;;;1.92;;
11197;SDS011;5655;48.744;9.162;2022-07-06T14:58:33;3.28;;;1.95;;
11197;SDS011;5655;48.744;9.162;2022-07-06T15:00:58;3.08;;;1.55;;
11197;SDS011;5655;48.744;9.162;2022-07-06T15:03:24;2.78;;;1.50;;
11197;SDS011;5655;48.744;9.162;2022-07-06T15:05:50;4.63;;;2.13;;
11197;SDS011;5655;48.744;9.162;2022-07-06T15:08:15;3.33;;;1.80;;
11197;SDS011;5655;48.744;9.162;2022-07-06T15:10:42;4.63;;;1.88;;
11197;SDS011;5655;48.744;9.162;2022-07-06T15:13:08;4.00;;;1.75;;
11197;SDS011;5655;48.744;9.162;2022-07-06T15:15:33;4.78;;;1.60;;
11197;SDS011;5655;48.744;9.162;2022-07-06T15:17:59;1.70;;;1.60;;
11197;SDS011;5655;48.744;9.162;2022-07-06T15:20:24;2.08;;;1.40;;